EBBL

Kleine Brogel Air Base Airport

Kleine Brogel, Belgium
METAR EBBL 211255Z 05010KT 9999 SKC 05/M04 Q1025 BLU BLU
Observed Flight Rules
Feb-21 @ 12:55 UTC (25 minutes ago) Visual Flight Rules
Wind Visibility Clouds
50° at 10 knots 10,000+ meters
  • Clear skies
Temperatures Readings
Current 5°C / 41°F
Dewpoint -4°C / 25°F
Humidity 53%
Altimeter 30.27" Hg
Pressure 1025 hPa
Elevation 64
METAR EBBL 211255Z 05010KT 9999 SKC 05/M04 Q1025 BLU BLU
Observed Flight Rules
Feb-21 @ 12:55 UTC
(25 minutes ago)
VFR
Wind Visibility
50° at 10 knots 10,000+ meters
Clouds
  • Clear skies
Temperature Dewpoint
5°C / 41°F -4°C / 25°F
Humidity Altimeter Pressure
53% 30.27" Hg 1025 hPa